Time;durP1;ratioP1;P1;durP2;ratioP2;P2;SDS_P1;SDS_P2;PMS_P1;PMS_P2;Temp;Humidity;BMP_temperature;BMP_pressure;BME280_temperature;BME280_humidity;BME280_pressure;Samples;Min_cycle;Max_cycle;Signal;HPM_P1;HPM_P2
2024/01/05 00:00:59;;;;;;;73.88;70.10;;;;;;;10.35;70.28;99747.53;5019381;28;20061;-72
2024/01/05 00:03:24;;;;;;;65.43;62.38;;;;;;;10.36;70.30;99743.78;5012195;28;20041;-73
2024/01/05 00:05:49;;;;;;;68.80;65.68;;;;;;;10.36;70.18;99744.59;5039135;28;20033;-73
2024/01/05 00:08:15;;;;;;;66.93;63.72;;;;;;;10.36;70.39;99746.50;5033535;28;20025;-72
2024/01/05 00:10:40;;;;;;;66.05;62.85;;;;;;;10.35;70.42;99742.16;5022499;28;20037;-71
2024/01/05 00:13:06;;;;;;;73.75;69.68;;;;;;;10.36;70.29;99739.19;5027054;28;20525;-71
2024/01/05 00:15:32;;;;;;;68.25;64.85;;;;;;;10.35;70.28;99736.75;5013793;28;20038;-71
2024/01/05 00:17:57;;;;;;;65.97;62.78;;;;;;;10.35;70.19;99736.75;5014379;28;20046;-73
2024/01/05 00:20:23;;;;;;;73.40;70.10;;;;;;;10.33;70.18;99737.03;5013439;28;20068;-74
2024/01/05 00:22:48;;;;;;;75.00;70.13;;;;;;;10.35;70.45;99736.75;5013775;28;20521;-72
2024/01/05 00:25:16;;;;;;;72.32;69.05;;;;;;;10.34;70.39;99735.94;5038832;28;20559;-72
2024/01/05 00:27:41;;;;;;;73.60;70.03;;;;;;;10.34;70.51;99730.53;5031292;28;20040;-73
2024/01/05 00:30:08;;;;;;;72.53;69.07;;;;;;;10.35;70.30;99729.47;5032402;28;20385;-71
2024/01/05 00:32:33;;;;;;;72.32;68.72;;;;;;;10.36;70.19;99719.50;5013236;28;20042;-72
2024/01/05 00:34:59;;;;;;;69.45;65.85;;;;;;;10.36;70.57;99714.09;5026446;28;20037;-73
2024/01/05 00:37:24;;;;;;;76.88;73.00;;;;;;;10.36;70.28;99720.31;5022088;28;20038;-72
2024/01/05 00:39:50;;;;;;;75.43;71.47;;;;;;;10.36;70.26;99714.91;5015512;28;20125;-72
2024/01/05 00:42:15;;;;;;;68.97;65.68;;;;;;;10.37;70.31;99716.50;5032354;28;20037;-72
2024/01/05 00:44:41;;;;;;;65.97;62.67;;;;;;;10.38;70.31;99710.06;5012909;28;20492;-72
2024/01/05 00:47:06;;;;;;;71.07;66.50;;;;;;;10.39;70.25;99710.84;5022065;28;20033;-72
2024/01/05 00:49:32;;;;;;;65.25;62.17;;;;;;;10.39;70.33;99708.16;5043123;28;20083;-72
2024/01/05 00:51:57;;;;;;;73.25;69.80;;;;;;;10.39;70.15;99702.75;5032436;28;20033;-72
2024/01/05 00:54:23;;;;;;;67.95;64.85;;;;;;;10.40;70.13;99704.38;5015707;28;20129;-72
2024/01/05 00:56:48;;;;;;;71.38;68.00;;;;;;;10.38;70.14;99701.94;5016958;28;20445;-72
2024/01/05 00:59:13;;;;;;;68.63;65.47;;;;;;;10.39;70.24;99698.16;5017118;28;20065;-71
2024/01/05 01:01:39;;;;;;;69.82;66.57;;;;;;;10.40;70.25;99693.56;5020913;28;20033;-71
2024/01/05 01:04:04;;;;;;;76.88;72.75;;;;;;;10.41;70.25;99689.81;5017185;28;20046;-72
2024/01/05 01:06:29;;;;;;;71.80;68.47;;;;;;;10.41;70.29;99687.09;5013272;28;20164;-71
2024/01/05 01:08:55;;;;;;;73.82;70.40;;;;;;;10.42;70.24;99688.72;5036766;28;20474;-72
2024/01/05 01:11:22;;;;;;;71.75;68.50;;;;;;;10.41;70.39;99681.72;5023501;28;20109;-71
2024/01/05 01:13:48;;;;;;;70.72;67.05;;;;;;;10.40;70.36;99675.47;5024062;28;20042;-72
2024/01/05 01:16:15;;;;;;;72.10;68.75;;;;;;;10.42;70.31;99680.63;5017658;28;20567;-73
2024/01/05 01:18:41;;;;;;;73.07;69.70;;;;;;;10.41;70.28;99673.63;5016803;28;20098;-71
2024/01/05 01:21:06;;;;;;;71.35;67.45;;;;;;;10.41;70.23;99660.13;5043640;28;20522;-72
2024/01/05 01:23:32;;;;;;;71.88;68.43;;;;;;;10.40;70.16;99664.69;5031792;28;20502;-71
2024/01/05 01:25:57;;;;;;;74.93;71.47;;;;;;;10.42;70.07;99667.13;5013031;28;20058;-72
2024/01/05 01:28:23;;;;;;;71.75;67.85;;;;;;;10.42;70.31;99652.81;5029354;28;20107;-72
2024/01/05 01:30:48;;;;;;;65.97;62.85;;;;;;;10.42;70.06;99650.94;4995016;28;20041;-72
2024/01/05 01:33:13;;;;;;;73.68;70.18;;;;;;;10.41;70.13;99643.91;5012728;28;20072;-71
2024/01/05 01:35:39;;;;;;;69.97;66.53;;;;;;;10.42;70.32;99642.81;5025135;28;20112;-72
2024/01/05 01:38:04;;;;;;;70.43;67.00;;;;;;;10.42;70.41;99637.44;5012502;28;20087;-72
2024/01/05 01:40:29;;;;;;;71.80;67.40;;;;;;;10.42;70.31;99636.63;5013090;28;20113;-71
2024/01/05 01:42:55;;;;;;;68.45;65.22;;;;;;;10.41;70.21;99633.13;5050179;28;20051;-72
2024/01/05 01:45:20;;;;;;;66.93;63.42;;;;;;;10.42;70.32;99628.53;5014585;28;20444;-72
2024/01/05 01:47:47;;;;;;;73.70;70.03;;;;;;;10.43;70.42;99624.72;5033822;28;20045;-71
2024/01/05 01:50:13;;;;;;;68.00;64.60;;;;;;;10.42;70.38;99617.72;5039521;28;20041;-71
2024/01/05 01:52:42;;;;;;;67.88;64.70;;;;;;;10.42;70.43;99620.44;5027108;28;20462;-71
2024/01/05 01:55:08;;;;;;;67.45;63.90;;;;;;;10.42;70.38;99613.13;5013081;28;20113;-72
2024/01/05 01:57:35;;;;;;;73.47;69.53;;;;;;;10.44;70.28;99607.47;5013132;28;20116;-72
2024/01/05 02:00:00;;;;;;;76.97;73.47;;;;;;;10.43;70.22;99600.44;5028821;28;20037;-71
2024/01/05 02:02:27;;;;;;;73.22;69.50;;;;;;;10.42;70.27;99605.03;5031470;28;20037;-71
2024/01/05 02:04:53;;;;;;;70.35;67.15;;;;;;;10.42;70.15;99596.94;5025435;28;20043;-72
2024/01/05 02:07:19;;;;;;;75.65;72.15;;;;;;;10.42;70.48;99593.44;5032541;28;20369;-72
2024/01/05 02:09:44;;;;;;;69.57;66.15;;;;;;;10.43;70.25;99592.34;5044332;28;20481;-72
2024/01/05 02:12:10;;;;;;;71.50;68.18;;;;;;;10.44;70.31;99592.09;5032239;28;20033;-72
2024/01/05 02:14:35;;;;;;;68.88;65.18;;;;;;;10.43;70.45;99568.03;5042937;28;20051;-71
2024/01/05 02:17:01;;;;;;;64.30;61.35;;;;;;;10.42;70.35;99569.13;5011801;28;20087;-71
2024/01/05 02:19:26;;;;;;;69.40;66.28;;;;;;;10.42;70.13;99559.13;5032630;28;20034;-72
2024/01/05 02:21:54;;;;;;;70.05;66.75;;;;;;;10.44;70.18;99564.28;5014318;28;20058;-72
2024/01/05 02:24:20;;;;;;;69.30;66.10;;;;;;;10.45;70.29;99564.00;5030413;28;20055;-70
2024/01/05 02:26:45;;;;;;;67.75;64.60;;;;;;;10.46;70.22;99556.69;5032772;28;20121;-72
2024/01/05 02:29:11;;;;;;;74.20;70.45;;;;;;;10.45;70.18;99547.78;5014794;28;20029;-71
2024/01/05 02:31:36;;;;;;;68.30;64.97;;;;;;;10.47;70.30;99553.75;5031815;28;20040;-72
2024/01/05 02:34:01;;;;;;;70.20;67.00;;;;;;;10.47;70.29;99542.13;5015515;28;20529;-72
2024/01/05 02:36:27;;;;;;;67.57;64.05;;;;;;;10.46;70.13;99544.03;5040809;28;20103;-72
2024/01/05 02:38:52;;;;;;;68.60;65.43;;;;;;;10.47;70.17;99539.44;5033152;28;20041;-72
2024/01/05 02:41:18;;;;;;;71.40;68.10;;;;;;;10.45;70.13;99545.09;5032588;28;20417;-71
2024/01/05 02:43:43;;;;;;;66.15;62.95;;;;;;;10.46;70.38;99548.59;5029462;28;20046;-73
2024/01/05 02:46:09;;;;;;;68.68;64.68;;;;;;;10.46;70.21;99537.78;5027165;28;20030;-72
2024/01/05 02:48:34;;;;;;;66.03;62.78;;;;;;;10.46;70.09;99538.63;5021322;28;20037;-72
2024/01/05 02:51:00;;;;;;;69.00;65.90;;;;;;;10.45;70.31;99528.91;5027707;28;20038;-72
2024/01/05 02:53:25;;;;;;;69.32;66.20;;;;;;;10.45;70.25;99525.38;5014655;28;20034;-72
2024/01/05 02:55:51;;;;;;;72.32;69.10;;;;;;;10.45;70.19;99534.28;5038614;28;20060;-70
2024/01/05 02:58:16;;;;;;;69.55;66.35;;;;;;;10.44;70.25;99516.50;5020064;28;20041;-72
2024/01/05 03:00:41;;;;;;;71.60;68.30;;;;;;;10.45;70.27;99530.78;5024688;28;20068;-72
2024/01/05 03:03:07;;;;;;;72.05;67.97;;;;;;;10.44;70.29;99518.38;5032254;28;20034;-71
2024/01/05 03:05:32;;;;;;;66.63;63.60;;;;;;;10.43;70.37;99516.75;5015892;28;20040;-72
2024/01/05 03:07:58;;;;;;;62.00;58.95;;;;;;;10.42;70.11;99513.25;5045112;28;20041;-71
2024/01/05 03:10:23;;;;;;;66.93;63.72;;;;;;;10.43;70.19;99514.06;5032519;28;20262;-71
2024/01/05 03:12:51;;;;;;;72.35;68.65;;;;;;;10.44;70.11;99508.38;5032010;28;20037;-71
2024/01/05 03:15:17;;;;;;;69.03;65.82;;;;;;;10.43;70.31;99501.34;5029807;28;20034;-71
2024/01/05 03:17:42;;;;;;;70.53;67.20;;;;;;;10.45;70.27;99509.19;5026322;28;20036;-71
2024/01/05 03:20:09;;;;;;;71.38;68.13;;;;;;;10.45;70.35;99498.41;5017387;28;20036;-75
2024/01/05 03:22:35;;;;;;;68.68;65.57;;;;;;;10.46;70.29;99489.19;5028681;28;20057;-71
2024/01/05 03:25:00;;;;;;;72.22;68.43;;;;;;;10.46;70.18;99487.34;5022810;28;20363;-72
2024/01/05 03:27:26;;;;;;;67.80;64.40;;;;;;;10.44;70.12;99478.69;5035904;28;20496;-72
2024/01/05 03:29:51;;;;;;;65.82;62.80;;;;;;;10.46;70.31;99475.72;5033093;28;20037;-72
2024/01/05 03:32:16;;;;;;;70.85;67.15;;;;;;;10.46;70.20;99467.59;5028727;28;20041;-71
2024/01/05 03:34:42;;;;;;;66.05;62.58;;;;;;;10.45;70.44;99453.31;5014272;28;20038;-71
2024/01/05 03:37:07;;;;;;;65.32;62.22;;;;;;;10.44;70.33;99450.91;5029641;28;20073;-71
2024/01/05 03:39:32;;;;;;;63.90;60.40;;;;;;;10.45;70.10;99453.31;5017405;28;20087;-72
2024/01/05 03:41:58;;;;;;;66.88;63.88;;;;;;;10.46;70.34;99452.25;5038313;28;20064;-72
2024/01/05 03:44:23;;;;;;;68.95;65.65;;;;;;;10.46;70.06;99446.84;5046543;28;20060;-71
2024/01/05 03:46:50;;;;;;;69.43;66.28;;;;;;;10.46;70.21;99446.00;5037190;28;20075;-72
2024/01/05 03:49:16;;;;;;;73.15;69.82;;;;;;;10.45;70.22;99437.09;5030188;28;20049;-72
2024/01/05 03:51:43;;;;;;;68.70;65.60;;;;;;;10.45;70.15;99437.09;5013632;28;20483;-72
2024/01/05 03:54:08;;;;;;;67.03;63.92;;;;;;;10.45;70.07;99437.09;5023026;28;20028;-72
2024/01/05 03:56:47;;;;;;;66.05;63.08;;;;;;;10.44;70.13;99427.41;5015928;28;20258;-72
2024/01/05 03:59:14;;;;;;;66.07;63.10;;;;;;;10.45;70.07;99422.81;5025504;28;20124;-72
2024/01/05 04:01:43;;;;;;;66.78;63.67;;;;;;;10.44;70.29;99418.50;5039703;28;20029;-71
2024/01/05 04:04:09;;;;;;;67.35;64.25;;;;;;;10.43;70.24;99414.97;5032956;28;20037;-72
2024/01/05 04:06:35;;;;;;;72.25;68.95;;;;;;;10.44;70.25;99422.00;5030142;28;20088;-71
2024/01/05 04:09:00;;;;;;;66.68;63.47;;;;;;;10.46;70.11;99408.22;5013438;28;20542;-72
2024/01/05 04:11:30;;;;;;;67.32;64.13;;;;;;;10.46;70.11;99408.22;5017886;28;20071;-72
2024/01/05 04:13:55;;;;;;;73.50;70.03;;;;;;;10.45;69.97;99401.22;5031916;28;20124;-72
2024/01/05 04:16:21;;;;;;;69.30;66.00;;;;;;;10.45;70.12;99402.00;5031514;28;20132;-73
2024/01/05 04:18:46;;;;;;;68.82;65.72;;;;;;;10.44;70.11;99397.72;5071479;28;20025;-73
2024/01/05 04:21:13;;;;;;;68.80;65.50;;;;;;;10.43;70.10;99390.69;5023806;28;20034;-72
2024/01/05 04:23:40;;;;;;;65.60;62.53;;;;;;;10.43;69.99;99393.38;5015539;28;20068;-73
2024/01/05 04:26:05;;;;;;;67.43;64.20;;;;;;;10.43;70.02;99390.69;5032579;28;20044;-72
2024/01/05 04:28:31;;;;;;;70.22;66.78;;;;;;;10.45;70.04;99390.41;5028659;28;20038;-72
2024/01/05 04:30:56;;;;;;;66.00;62.80;;;;;;;10.44;69.97;99380.72;5041024;28;20393;-72
2024/01/05 04:33:21;;;;;;;67.70;63.95;;;;;;;10.44;69.85;99372.63;5012823;28;20034;-73
2024/01/05 04:35:47;;;;;;;70.30;67.07;;;;;;;10.43;69.90;99371.78;5032230;28;20038;-72
2024/01/05 04:38:12;;;;;;;71.53;68.25;;;;;;;10.44;70.21;99372.63;5025692;28;20474;-71
2024/01/05 04:40:38;;;;;;;66.63;62.88;;;;;;;10.42;69.98;99372.88;5017133;28;20552;-72
2024/01/05 04:43:04;;;;;;;66.65;63.65;;;;;;;10.43;70.21;99385.28;5024351;28;20038;-72
2024/01/05 04:45:29;;;;;;;64.60;61.55;;;;;;;10.44;70.07;99378.00;5011020;28;20375;-71
2024/01/05 04:47:55;;;;;;;69.93;66.75;;;;;;;10.45;70.23;99372.31;5026622;28;20170;-71
2024/01/05 04:50:20;;;;;;;62.80;59.88;;;;;;;10.46;70.05;99367.72;5012291;28;20033;-72
2024/01/05 04:52:45;;;;;;;66.85;63.75;;;;;;;10.47;69.90;99372.84;5021985;28;20033;-72
2024/01/05 04:55:14;;;;;;;64.93;62.03;;;;;;;10.50;69.77;99385.81;5020837;28;20362;-72
2024/01/05 04:57:40;;;;;;;;;;;;;;;10.49;69.90;99359.91;5028920;28;20041;-71
2024/01/05 05:00:08;;;;;;;65.00;62.00;;;;;;;10.48;69.97;99354.75;5018584;28;19971;-73
2024/01/05 05:02:33;;;;;;;63.45;60.50;;;;;;;10.46;69.92;99349.66;5026521;28;20061;-72
2024/01/05 05:04:59;;;;;;;69.45;66.35;;;;;;;10.45;70.08;99350.72;5012896;28;20069;-71
2024/01/05 05:07:24;;;;;;;66.95;63.85;;;;;;;10.45;69.81;99348.03;5020046;28;20143;-72
2024/01/05 05:09:49;;;;;;;69.60;66.00;;;;;;;10.46;70.18;99338.84;5015732;28;20390;-71
2024/01/05 05:12:15;;;;;;;68.45;65.38;;;;;;;10.46;70.25;99343.41;5016631;28;20041;-71
2024/01/05 05:14:40;;;;;;;68.72;65.63;;;;;;;10.48;70.04;99347.50;5015950;28;20029;-71
2024/01/05 05:17:06;;;;;;;68.05;64.97;;;;;;;10.49;69.94;99337.50;5027568;28;20133;-72
2024/01/05 05:19:32;;;;;;;62.42;59.40;;;;;;;10.49;70.18;99327.50;5015177;28;20065;-72
2024/01/05 05:21:57;;;;;;;67.28;64.15;;;;;;;10.50;69.93;99329.09;5010911;28;20053;-72
2024/01/05 05:24:23;;;;;;;66.50;63.47;;;;;;;10.49;70.09;99316.69;5031812;28;20041;-72
2024/01/05 05:26:48;;;;;;;67.63;64.63;;;;;;;10.49;69.83;99315.91;5014552;28;20096;-72
2024/01/05 05:29:14;;;;;;;64.05;61.15;;;;;;;10.46;70.06;99311.84;5034085;28;20532;-71
2024/01/05 05:31:39;;;;;;;67.68;64.47;;;;;;;10.43;69.93;99309.69;5031084;28;20064;-73
2024/01/05 05:34:05;;;;;;;69.25;66.13;;;;;;;10.43;69.98;99308.88;5018710;28;20034;-72
2024/01/05 05:36:30;;;;;;;65.20;62.20;;;;;;;10.42;69.94;99310.78;5040407;28;20037;-71
2024/01/05 05:38:55;;;;;;;69.75;66.35;;;;;;;10.40;69.92;99308.34;5025957;28;20474;-72
2024/01/05 05:41:21;;;;;;;68.00;64.90;;;;;;;10.39;70.18;99327.53;5019154;28;20036;-71
2024/01/05 05:43:47;;;;;;;69.57;66.47;;;;;;;10.32;69.98;99314.34;5022908;28;20457;-72
2024/01/05 05:46:12;;;;;;;63.85;60.97;;;;;;;10.31;70.29;99320.81;5018713;28;20036;-72
2024/01/05 05:48:37;;;;;;;65.03;61.92;;;;;;;10.30;70.07;99311.09;5036205;28;20043;-72
2024/01/05 05:51:04;;;;;;;67.32;64.30;;;;;;;10.29;70.09;99316.78;5021382;28;20057;-74
2024/01/05 05:53:30;;;;;;;67.65;64.45;;;;;;;10.27;70.07;99322.41;5025240;28;20073;-74
2024/01/05 05:55:55;;;;;;;64.22;61.33;;;;;;;10.26;69.97;99325.41;5050012;28;20079;-72
2024/01/05 05:58:21;;;;;;;63.63;60.70;;;;;;;10.26;69.84;99331.59;5014417;28;20041;-72
2024/01/05 06:00:48;;;;;;;65.55;62.58;;;;;;;10.25;69.92;99334.56;5023217;28;20041;-72
2024/01/05 06:03:14;;;;;;;64.75;61.83;;;;;;;10.24;69.96;99331.06;5022598;28;20037;-72
2024/01/05 06:05:39;;;;;;;67.30;64.10;;;;;;;10.25;69.98;99340.78;5033728;28;20037;-71
2024/01/05 06:08:05;;;;;;;66.47;63.47;;;;;;;10.27;69.18;99333.22;5028743;28;20045;-73
2024/01/05 06:10:30;;;;;;;64.95;61.78;;;;;;;10.24;69.12;99336.47;5016639;28;20080;-73
2024/01/05 06:12:56;;;;;;;65.90;62.90;;;;;;;10.22;69.06;99343.22;5022064;28;20041;-72
2024/01/05 06:15:21;;;;;;;68.20;65.15;;;;;;;10.22;69.30;99333.22;5018125;28;20044;-72
2024/01/05 06:17:46;;;;;;;63.15;60.05;;;;;;;10.22;69.00;99332.44;5030615;28;20737;-72
2024/01/05 06:20:12;;;;;;;66.03;63.08;;;;;;;10.19;69.10;99331.88;5021586;28;20532;-72
2024/01/05 06:22:37;;;;;;;69.45;66.25;;;;;;;10.17;69.05;99335.94;5029058;28;20054;-72
2024/01/05 06:25:03;;;;;;;61.05;58.30;;;;;;;10.15;69.11;99330.84;5040908;28;20041;-74
2024/01/05 06:27:28;;;;;;;65.70;62.72;;;;;;;10.15;68.96;99333.53;5022098;28;20113;-75
2024/01/05 06:29:53;;;;;;;62.25;59.45;;;;;;;10.16;69.29;99327.03;5030981;28;20083;-72
2024/01/05 06:32:19;;;;;;;61.38;58.60;;;;;;;10.14;68.80;99329.22;5021722;28;20478;-72
2024/01/05 06:34:44;;;;;;;66.60;63.50;;;;;;;10.14;68.88;99329.22;5032651;28;20493;-72
2024/01/05 06:37:10;;;;;;;62.13;59.30;;;;;;;10.15;68.74;99328.16;5037885;28;20386;-72
2024/01/05 06:39:36;;;;;;;64.40;61.40;;;;;;;10.15;68.82;99325.44;5034381;28;20036;-73
2024/01/05 06:42:01;;;;;;;64.47;61.58;;;;;;;10.16;68.94;99329.75;5042670;28;20036;-72
2024/01/05 06:44:27;;;;;;;68.45;65.35;;;;;;;10.17;69.08;99330.53;5032744;28;20025;-74
2024/01/05 06:46:52;;;;;;;62.90;60.03;;;;;;;10.16;68.87;99332.44;5023169;28;20088;-74
2024/01/05 06:49:18;;;;;;;64.78;61.78;;;;;;;10.17;68.70;99341.34;5039861;28;20518;-72
2024/01/05 06:51:44;;;;;;;65.35;62.25;;;;;;;10.15;68.64;99335.41;5016151;28;20335;-72
2024/01/05 06:54:11;;;;;;;68.82;65.68;;;;;;;10.12;68.68;99336.75;5038698;28;20029;-72
2024/01/05 06:56:37;;;;;;;66.22;63.15;;;;;;;10.08;68.57;99335.72;5039802;28;20186;-75
2024/01/05 06:59:04;;;;;;;68.40;65.30;;;;;;;10.08;68.41;99337.56;5061249;28;20529;-73
2024/01/05 07:01:31;;;;;;;64.13;61.22;;;;;;;10.06;68.83;99332.47;5020789;28;20161;-73
2024/01/05 07:03:57;;;;;;;62.45;59.58;;;;;;;10.06;68.69;99335.16;5039924;28;20069;-72
2024/01/05 07:06:22;;;;;;;65.45;62.45;;;;;;;10.05;68.81;99335.44;5046033;28;20038;-72
2024/01/05 07:08:48;;;;;;;66.28;63.15;;;;;;;10.05;68.78;99349.72;5028911;28;20033;-72
2024/01/05 07:11:23;;;;;;;61.17;58.28;;;;;;;10.07;68.68;99341.38;5039883;28;20120;-73
2024/01/05 07:13:49;;;;;;;65.32;62.30;;;;;;;10.06;68.74;99331.66;5028193;28;20030;-72
2024/01/05 07:16:16;;;;;;;64.00;60.90;;;;;;;10.06;68.87;99340.56;5033832;28;20583;-72
2024/01/05 07:18:42;;;;;;;63.08;60.08;;;;;;;10.05;68.76;99352.41;5041312;28;20069;-72
2024/01/05 07:21:07;;;;;;;64.35;61.45;;;;;;;10.06;68.36;99343.25;5024363;28;20141;-72
2024/01/05 07:23:33;;;;;;;65.25;62.22;;;;;;;10.05;68.86;99338.94;5015526;28;20061;-72
2024/01/05 07:26:00;;;;;;;64.63;61.63;;;;;;;10.07;68.57;99330.56;5043246;28;20456;-72
2024/01/05 07:28:25;;;;;;;64.82;61.83;;;;;;;10.04;68.86;99329.22;5045219;28;20061;-73
2024/01/05 07:30:51;;;;;;;65.70;62.60;;;;;;;10.02;68.65;99327.91;5042578;28;20064;-72
2024/01/05 07:33:16;;;;;;;66.88;63.88;;;;;;;10.00;68.69;99327.34;5029324;28;20124;-72
2024/01/05 07:35:41;;;;;;;65.63;62.53;;;;;;;10.00;68.87;99336.25;5026180;28;20382;-72
2024/01/05 07:38:07;;;;;;;67.10;64.00;;;;;;;10.01;68.74;99329.78;5035413;28;20034;-72
2024/01/05 07:40:32;;;;;;;63.03;60.05;;;;;;;10.03;68.66;99337.59;5034716;28;20120;-72
2024/01/05 07:42:58;;;;;;;63.70;60.83;;;;;;;10.05;68.69;99333.53;5034532;28;20543;-71
2024/01/05 07:45:23;;;;;;;64.78;61.83;;;;;;;10.03;68.57;99333.03;5034189;28;20405;-71
2024/01/05 07:47:49;;;;;;;66.10;63.08;;;;;;;10.02;68.78;99333.28;5037450;28;20036;-73
2024/01/05 07:50:15;;;;;;;65.32;62.38;;;;;;;10.03;68.71;99338.41;5032362;28;20131;-72
2024/01/05 07:52:40;;;;;;;67.45;64.28;;;;;;;10.01;68.56;99342.47;5037030;28;20033;-72
2024/01/05 07:55:07;;;;;;;62.53;59.70;;;;;;;9.99;68.64;99347.31;5022784;28;20042;-72
2024/01/05 07:57:32;;;;;;;68.57;65.47;;;;;;;9.98;68.44;99349.22;5018996;28;20040;-72
2024/01/05 07:59:59;;;;;;;65.40;62.40;;;;;;;9.97;68.50;99347.59;5029995;28;20041;-73
2024/01/05 08:02:24;;;;;;;67.60;64.53;;;;;;;9.95;68.78;99350.56;5012634;28;20382;-72
2024/01/05 08:04:50;;;;;;;67.07;63.97;;;;;;;9.94;68.79;99348.94;5035969;28;20473;-72
2024/01/05 08:07:15;;;;;;;63.85;60.95;;;;;;;9.95;68.75;99355.97;5029954;28;20073;-71
2024/01/05 08:09:42;;;;;;;62.78;59.88;;;;;;;9.92;68.86;99356.50;5033638;28;20466;-73
2024/01/05 08:12:08;;;;;;;66.70;63.40;;;;;;;9.93;68.54;99343.84;5036741;28;20039;-72
2024/01/05 08:14:33;;;;;;;64.43;61.42;;;;;;;9.91;68.65;99356.78;5029292;28;20034;-72
2024/01/05 08:16:58;;;;;;;63.85;60.83;;;;;;;9.90;68.93;99361.38;5039640;28;20094;-72
2024/01/05 08:19:24;;;;;;;62.28;59.42;;;;;;;9.89;68.91;99361.63;5050376;28;20504;-72
2024/01/05 08:21:53;;;;;;;63.70;60.70;;;;;;;9.87;68.74;99369.19;5034107;28;20060;-72
2024/01/05 08:24:18;;;;;;;69.50;66.30;;;;;;;9.87;68.90;99367.28;5043164;28;20056;-73
2024/01/05 08:26:44;;;;;;;68.85;65.75;;;;;;;9.86;68.85;99373.78;5030975;28;20029;-73
2024/01/05 08:29:10;;;;;;;61.30;58.42;;;;;;;9.86;69.05;99364.88;5032612;28;20095;-72
2024/01/05 08:31:35;;;;;;;59.67;56.97;;;;;;;9.84;69.01;99375.94;5032210;28;20038;-72
2024/01/05 08:34:00;;;;;;;64.82;61.83;;;;;;;9.83;69.07;99379.72;5026205;28;20049;-73
2024/01/05 08:36:27;;;;;;;63.40;60.50;;;;;;;9.82;68.75;99383.47;5013170;28;20488;-73
2024/01/05 08:38:53;;;;;;;58.95;56.13;;;;;;;9.82;68.80;99382.69;5011703;28;20034;-72
2024/01/05 08:41:19;;;;;;;64.18;60.97;;;;;;;9.78;68.60;99390.50;5017175;28;20048;-71
2024/01/05 08:43:44;;;;;;;59.72;56.97;;;;;;;9.74;68.85;99384.84;5020993;28;20034;-71
2024/01/05 08:46:10;;;;;;;67.53;64.43;;;;;;;9.73;68.95;99382.44;5024666;28;20041;-72
2024/01/05 08:48:38;;;;;;;62.35;59.53;;;;;;;9.74;68.74;99390.22;5027843;28;20065;-73
2024/01/05 08:51:04;;;;;;;62.28;59.28;;;;;;;9.72;68.66;99392.38;5028110;28;20457;-72
2024/01/05 08:53:30;;;;;;;60.20;57.40;;;;;;;9.73;68.65;99399.41;5028535;28;20087;-72
2024/01/05 08:55:55;;;;;;;68.40;65.18;;;;;;;9.73;68.77;99382.44;5026611;28;20053;-72
2024/01/05 08:58:20;;;;;;;66.28;63.17;;;;;;;9.72;68.71;99403.16;5027518;28;20454;-71
2024/01/05 09:00:46;;;;;;;62.78;59.90;;;;;;;9.72;68.50;99397.78;5039516;28;20033;-78
2024/01/05 09:03:12;;;;;;;60.60;57.80;;;;;;;9.73;68.77;99396.72;5020000;28;20037;-72
2024/01/05 09:05:37;;;;;;;63.55;60.65;;;;;;;9.72;68.58;99395.06;5027931;28;20065;-72
2024/01/05 09:08:03;;;;;;;62.88;59.97;;;;;;;9.73;68.54;99394.00;5011803;28;20069;-72
2024/01/05 09:10:32;;;;;;;65.57;62.58;;;;;;;9.73;68.57;99407.50;5019487;28;20026;-72
2024/01/05 09:12:58;;;;;;;;;;;;;;;9.72;68.45;99399.66;5039139;28;20117;-72
2024/01/05 09:15:23;;;;;;;59.53;56.72;;;;;;;9.71;68.63;99401.56;5021115;28;20003;-71
2024/01/05 09:17:48;;;;;;;59.42;56.65;;;;;;;9.70;68.37;99396.41;5029062;28;20564;-72
2024/01/05 09:20:14;;;;;;;61.60;58.60;;;;;;;9.69;68.53;99405.59;5032447;28;20029;-70
2024/01/05 09:22:40;;;;;;;64.95;61.95;;;;;;;9.67;68.44;99405.84;5037858;28;20132;-71
2024/01/05 09:25:07;;;;;;;63.05;60.05;;;;;;;9.67;68.58;99397.78;5026464;28;20391;-71
2024/01/05 09:27:33;;;;;;;61.30;58.47;;;;;;;9.68;68.71;99406.69;5029008;28;20446;-72
2024/01/05 09:29:59;;;;;;;60.85;57.95;;;;;;;9.69;68.32;99417.19;5027523;28;20044;-72
2024/01/05 09:32:25;;;;;;;63.50;60.50;;;;;;;9.68;68.51;99406.69;5028397;28;20385;-72
2024/01/05 09:34:50;;;;;;;60.30;57.53;;;;;;;9.66;68.55;99412.34;5023858;28;20470;-73
2024/01/05 09:37:15;;;;;;;65.18;62.10;;;;;;;9.66;68.73;99414.22;5017863;28;20480;-71
2024/01/05 09:39:42;;;;;;;64.90;61.90;;;;;;;9.66;68.53;99416.94;5023162;28;20041;-71
2024/01/05 09:42:08;;;;;;;64.88;61.78;;;;;;;9.65;68.89;99415.28;5029574;28;20099;-72
2024/01/05 09:44:35;;;;;;;63.97;60.97;;;;;;;9.62;68.57;99421.22;5028432;28;20041;-71
2024/01/05 09:47:01;;;;;;;62.33;59.35;;;;;;;9.62;69.00;99418.53;5028179;28;20036;-72
2024/01/05 09:49:26;;;;;;;63.58;60.58;;;;;;;9.62;68.71;99426.63;5032494;28;20037;-71
2024/01/05 09:51:53;;;;;;;62.95;60.10;;;;;;;9.63;68.71;99430.97;5008977;28;20117;-70
2024/01/05 09:54:19;;;;;;;63.28;60.28;;;;;;;9.62;68.69;99423.94;5010334;28;20073;-71
2024/01/05 09:56:48;;;;;;;63.53;60.63;;;;;;;9.62;68.61;99430.13;5026246;28;20128;-71
2024/01/05 09:59:17;;;;;;;59.03;56.20;;;;;;;9.61;68.46;99433.91;5012234;28;20033;-71
2024/01/05 10:01:43;;;;;;;61.25;58.35;;;;;;;9.60;68.66;99439.56;5025454;28;20079;-71
2024/01/05 10:04:11;;;;;;;62.90;59.90;;;;;;;9.58;68.52;99436.34;5008907;28;20057;-72
2024/01/05 10:06:36;;;;;;;60.90;58.00;;;;;;;9.58;68.56;99447.13;5026327;28;20041;-76
2024/01/05 10:09:02;;;;;;;64.05;61.00;;;;;;;9.56;68.67;99439.28;5010279;28;20119;-71
2024/01/05 10:11:32;;;;;;;61.60;58.70;;;;;;;9.57;68.73;99437.41;5013542;28;20030;-72
2024/01/05 10:14:03;;;;;;;65.50;62.40;;;;;;;9.57;68.78;99438.22;5038851;28;20461;-71
2024/01/05 10:16:43;;;;;;;59.20;56.50;;;;;;;9.57;68.71;99449.00;5030787;28;20048;-71
2024/01/05 10:19:14;;;;;;;62.70;59.70;;;;;;;9.56;68.71;99450.06;5038446;28;20033;-72
2024/01/05 10:21:43;;;;;;;60.80;58.00;;;;;;;9.56;68.77;99446.56;5047318;28;20029;-72
2024/01/05 10:24:25;;;;;;;64.88;61.83;;;;;;;9.53;68.78;99439.84;5011724;28;20037;-72
2024/01/05 10:27:11;;;;;;;59.88;57.08;;;;;;;9.53;68.84;99448.72;5024929;28;20030;-72
2024/01/05 10:29:55;;;;;;;63.50;60.50;;;;;;;9.52;68.80;99454.38;5009715;28;20044;-71
2024/01/05 10:32:21;;;;;;;58.95;56.15;;;;;;;9.51;68.87;99450.88;5038193;28;20074;-71
2024/01/05 10:34:48;;;;;;;60.80;58.00;;;;;;;9.50;68.90;99448.47;5036622;28;20074;-71
2024/01/05 10:37:19;;;;;;;67.70;64.50;;;;;;;9.50;68.75;99454.66;5016948;28;20056;-72
2024/01/05 10:39:54;;;;;;;58.65;55.90;;;;;;;9.49;69.03;99452.22;5012066;28;20367;-71
2024/01/05 10:42:20;;;;;;;62.72;59.72;;;;;;;9.46;68.99;99440.09;5030682;28;20036;-71
2024/01/05 10:44:48;;;;;;;60.15;57.35;;;;;;;9.47;68.86;99448.97;5025679;28;20030;-72
2024/01/05 10:47:17;;;;;;;64.37;61.27;;;;;;;9.48;69.00;99435.25;5022939;28;20087;-72
2024/01/05 10:49:48;;;;;;;59.88;57.13;;;;;;;9.50;69.06;99449.28;5043059;28;20113;-72
2024/01/05 10:52:15;;;;;;;63.78;60.63;;;;;;;9.50;69.05;99432.28;5013889;28;20124;-71
2024/01/05 10:54:41;;;;;;;60.63;57.83;;;;;;;9.49;68.91;99441.44;5034969;28;20037;-72
2024/01/05 10:57:09;;;;;;;62.55;59.65;;;;;;;9.47;68.91;99444.38;5031602;28;20037;-72
2024/01/05 10:59:35;;;;;;;64.65;61.75;;;;;;;9.47;68.94;99441.69;5018081;28;20032;-73
2024/01/05 11:02:03;;;;;;;62.25;59.40;;;;;;;9.46;68.98;99440.09;5038351;28;20037;-73
2024/01/05 11:04:32;;;;;;;61.30;58.50;;;;;;;9.47;68.86;99436.31;5034283;28;20033;-72
2024/01/05 11:06:58;;;;;;;56.85;54.25;;;;;;;9.46;68.86;99440.09;5036749;28;20029;-72
2024/01/05 11:09:53;;;;;;;64.68;61.67;;;;;;;9.46;68.94;99442.78;5032364;28;20036;-73
2024/01/05 11:12:51;;;;;;;62.28;59.25;;;;;;;9.44;68.96;99447.63;5011470;28;20240;-79
2024/01/05 11:15:37;;;;;;;62.42;59.33;;;;;;;9.45;68.54;99445.72;5041960;28;20497;-73